Time;durP1;ratioP1;P1;durP2;ratioP2;P2;SDS_P1;SDS_P2;PMS_P1;PMS_P2;Temp;Humidity;BMP_temperature;BMP_pressure;BME280_temperature;BME280_humidity;BME280_pressure;Samples;Min_cycle;Max_cycle;Signal;HPM_P1;HPM_P2
2021/01/07 00:00:58;;;;;;;1.30;1.20;;;;;16.20;100230.00;;;;2062751;28;20302;-49
2021/01/07 00:01:58;;;;;;;1.90;1.80;;;;;16.20;100241.00;;;;2062950;28;20212;-50
2021/01/07 00:02:58;;;;;;;1.93;1.83;;;;;16.20;100229.00;;;;2062673;28;20223;-51
2021/01/07 00:03:59;;;;;;;2.00;1.80;;;;;16.20;100225.00;;;;2062542;28;20900;-50
2021/01/07 00:04:59;;;;;;;1.70;1.60;;;;;16.20;100225.00;;;;2062384;28;21049;-50
2021/01/07 00:05:59;;;;;;;1.83;1.73;;;;;16.20;100220.00;;;;2063652;28;20298;-52
2021/01/07 00:07:00;;;;;;;1.87;1.77;;;;;16.20;100179.00;;;;2063248;28;20768;-50
2021/01/07 00:08:00;;;;;;;2.27;2.07;;;;;16.20;100227.00;;;;2063569;28;20591;-52
2021/01/07 00:09:01;;;;;;;2.13;1.93;;;;;16.10;100220.00;;;;2063490;28;20589;-53
2021/01/07 00:10:03;;;;;;;2.00;1.90;;;;;16.10;100218.00;;;;2063560;28;20247;-52
2021/01/07 00:11:04;;;;;;;2.20;2.10;;;;;16.10;100218.00;;;;2063623;28;20207;-53
2021/01/07 00:12:05;;;;;;;2.03;1.88;;;;;16.10;100219.00;;;;2063376;28;20306;-53
2021/01/07 00:13:05;;;;;;;2.30;1.93;;;;;16.20;100214.00;;;;2063538;28;20211;-53
2021/01/07 00:14:06;;;;;;;2.20;2.10;;;;;16.20;100219.00;;;;2062675;28;20613;-54
2021/01/07 00:15:07;;;;;;;2.00;1.90;;;;;16.10;100224.00;;;;2062431;28;20246;-51
2021/01/07 00:16:07;;;;;;;2.30;2.10;;;;;16.20;100224.00;;;;2062688;28;20230;-52
2021/01/07 00:17:08;;;;;;;2.07;1.90;;;;;16.20;100222.00;;;;2062165;28;20466;-51
2021/01/07 00:18:08;;;;;;;2.00;1.90;;;;;16.20;100216.00;;;;2061720;28;20227;-51
2021/01/07 00:19:08;;;;;;;1.60;1.50;;;;;16.20;100220.00;;;;2062447;28;20620;-49
2021/01/07 00:20:10;;;;;;;2.00;1.90;;;;;16.20;100225.00;;;;2062794;28;20219;-51
2021/01/07 00:21:11;;;;;;;1.90;1.80;;;;;16.20;100218.00;;;;2062827;28;20836;-52
2021/01/07 00:22:12;;;;;;;2.20;2.03;;;;;16.20;100225.00;;;;2062974;28;20219;-53
2021/01/07 00:23:12;;;;;;;1.90;1.80;;;;;16.20;100215.00;;;;2063352;28;20298;-53
2021/01/07 00:24:13;;;;;;;1.90;1.80;;;;;16.20;100224.00;;;;2063183;28;20281;-52
2021/01/07 00:25:13;;;;;;;2.27;2.00;;;;;16.20;100223.00;;;;2062846;28;20299;-53
2021/01/07 00:26:13;;;;;;;2.13;2.03;;;;;16.20;100226.00;;;;2063459;28;20716;-54
2021/01/07 00:27:14;;;;;;;1.90;1.80;;;;;16.20;100224.00;;;;2063136;28;20219;-53
2021/01/07 00:28:15;;;;;;;2.37;2.17;;;;;16.20;100214.00;;;;2063177;28;20219;-53
2021/01/07 00:29:15;;;;;;;2.10;1.95;;;;;16.20;100219.00;;;;2063440;28;20250;-52
2021/01/07 00:30:16;;;;;;;2.10;1.93;;;;;16.20;100223.00;;;;2063169;28;20219;-53
2021/01/07 00:31:17;;;;;;;2.10;2.00;;;;;16.20;100221.00;;;;2062998;28;20730;-53
2021/01/07 00:32:17;;;;;;;2.10;2.00;;;;;16.20;100217.00;;;;2063234;28;20537;-52
2021/01/07 00:33:17;;;;;;;2.20;2.10;;;;;16.20;100213.00;;;;2063213;28;20215;-52
2021/01/07 00:34:18;;;;;;;1.90;1.80;;;;;16.20;100211.00;;;;2063126;28;20584;-53
2021/01/07 00:35:18;;;;;;;1.90;1.80;;;;;16.20;100214.00;;;;2062653;28;20219;-49
2021/01/07 00:36:19;;;;;;;2.50;1.97;;;;;16.20;100210.00;;;;2063430;28;20826;-53
2021/01/07 00:37:19;;;;;;;2.40;2.20;;;;;16.20;100211.00;;;;2062914;28;20350;-51
2021/01/07 00:38:19;;;;;;;2.00;1.90;;;;;16.20;100218.00;;;;2062148;28;20223;-52
2021/01/07 00:39:20;;;;;;;1.97;1.87;;;;;16.20;100207.00;;;;2062439;28;20247;-52
2021/01/07 00:40:20;;;;;;;2.17;2.03;;;;;16.20;100214.00;;;;2062589;28;20671;-53
2021/01/07 00:41:21;;;;;;;2.60;2.03;;;;;16.20;100210.00;;;;2062010;28;20215;-57
2021/01/07 00:42:21;;;;;;;2.60;2.40;;;;;16.20;100214.00;;;;2062848;28;20265;-53
2021/01/07 00:43:22;;;;;;;2.00;1.83;;;;;16.20;100206.00;;;;2063161;28;20576;-53
2021/01/07 00:44:22;;;;;;;1.80;1.70;;;;;16.20;100216.00;;;;2063049;28;20632;-53
2021/01/07 00:45:22;;;;;;;1.97;1.87;;;;;16.10;100215.00;;;;2062620;28;20382;-53
2021/01/07 00:46:23;;;;;;;2.17;2.03;;;;;16.20;100216.00;;;;2063316;28;20216;-52
2021/01/07 00:47:23;;;;;;;2.10;2.00;;;;;16.20;100210.00;;;;2070966;28;20734;-51
2021/01/07 00:48:23;;;;;;;2.20;2.10;;;;;16.10;100212.00;;;;2078674;28;20702;-52
2021/01/07 00:49:24;;;;;;;2.50;2.23;;;;;16.20;100204.00;;;;2066698;28;20635;-53
2021/01/07 00:50:24;;;;;;;2.53;2.37;;;;;16.10;100212.00;;;;2055114;28;20208;-52
2021/01/07 00:51:32;;;;;;;2.23;2.13;;;;;16.10;100207.00;;;;2061168;28;20767;-53
2021/01/07 00:52:32;;;;;;;2.38;2.17;;;;;16.10;100210.00;;;;2063106;28;20226;-52
2021/01/07 00:53:33;;;;;;;2.40;2.20;;;;;16.10;100201.00;;;;2061451;28;20203;-52
2021/01/07 00:54:34;;;;;;;2.20;2.10;;;;;16.10;100211.00;;;;2060674;28;20212;-52
2021/01/07 00:55:34;;;;;;;2.75;2.55;;;;;16.10;100211.00;;;;2062695;28;20215;-53
2021/01/07 00:56:36;;;;;;;2.60;2.40;;;;;16.20;100213.00;;;;2063029;28;20290;-53
2021/01/07 00:57:37;;;;;;;2.38;2.28;;;;;16.20;100205.00;;;;2062856;28;20215;-53
2021/01/07 00:58:37;;;;;;;2.00;1.90;;;;;16.10;100208.00;;;;2062609;28;20791;-52
2021/01/07 00:59:37;;;;;;;2.30;2.20;;;;;16.20;100212.00;;;;2063291;28;20211;-53
2021/01/07 01:00:38;;;;;;;2.20;2.00;;;;;16.10;100214.00;;;;2062733;28;20215;-50
2021/01/07 01:01:45;;;;;;;2.17;2.07;;;;;16.10;100203.00;;;;2062550;28;20218;-53
2021/01/07 01:02:46;;;;;;;2.67;2.47;;;;;16.10;100206.00;;;;2062691;28;20211;-54
2021/01/07 01:03:46;;;;;;;2.33;2.13;;;;;16.10;100200.00;;;;2062791;28;20237;-52
2021/01/07 01:04:46;;;;;;;2.60;2.43;;;;;16.10;100205.00;;;;2061792;28;20700;-52
2021/01/07 01:05:48;;;;;;;2.40;2.30;;;;;16.10;100203.00;;;;2063078;28;20600;-54
2021/01/07 01:06:48;;;;;;;2.42;2.22;;;;;16.10;100204.00;;;;2061873;28;20226;-52
2021/01/07 01:07:49;;;;;;;1.90;1.80;;;;;16.10;100201.00;;;;2062228;28;20744;-50
2021/01/07 01:08:49;;;;;;;2.37;2.23;;;;;16.20;100205.00;;;;2061879;28;20238;-53
2021/01/07 01:09:49;;;;;;;2.10;2.00;;;;;16.10;100201.00;;;;2062503;28;20331;-53
2021/01/07 01:10:50;;;;;;;2.83;2.53;;;;;16.10;100195.00;;;;2062210;28;20278;-53
2021/01/07 01:11:50;;;;;;;2.30;2.20;;;;;16.10;100195.00;;;;2063129;28;20226;-52
2021/01/07 01:12:50;;;;;;;3.70;2.43;;;;;16.20;100202.00;;;;2063120;28;20223;-53
2021/01/07 01:13:51;;;;;;;2.40;2.20;;;;;16.20;100199.00;;;;2062921;28;20211;-53
2021/01/07 01:14:51;;;;;;;2.30;2.10;;;;;16.20;100204.00;;;;2062277;28;20353;-51
2021/01/07 01:15:51;;;;;;;2.63;2.43;;;;;16.10;100197.00;;;;2063149;28;20227;-52
2021/01/07 01:16:52;;;;;;;2.50;2.30;;;;;16.10;100196.00;;;;2056005;28;20588;-53
2021/01/07 01:17:52;;;;;;;2.37;2.27;;;;;16.10;100201.00;;;;2062711;28;20712;-51
2021/01/07 01:18:53;;;;;;;1.90;1.80;;;;;16.10;100200.00;;;;2062312;28;20215;-51
2021/01/07 01:19:53;;;;;;;2.60;2.40;;;;;16.10;100195.00;;;;2062419;28;20216;-53
2021/01/07 01:20:53;;;;;;;2.80;2.60;;;;;16.10;100208.00;;;;2062837;28;20218;-51
2021/01/07 01:21:54;;;;;;;2.97;2.70;;;;;16.10;100198.00;;;;2062889;28;20216;-53
2021/01/07 01:22:54;;;;;;;2.50;2.33;;;;;16.10;100195.00;;;;2063010;28;20295;-53
2021/01/07 01:23:55;;;;;;;2.33;2.13;;;;;16.20;100191.00;;;;2062554;28;20728;-51
2021/01/07 01:24:57;;;;;;;2.30;2.20;;;;;16.10;100196.00;;;;2062118;28;20561;-53
2021/01/07 01:25:57;;;;;;;2.00;1.90;;;;;16.10;100191.00;;;;2060606;28;20499;-51
2021/01/07 01:26:58;;;;;;;2.10;2.00;;;;;16.00;100190.00;;;;2062164;28;20269;-53
2021/01/07 01:27:58;;;;;;;2.60;2.40;;;;;16.10;100193.00;;;;2062134;28;20220;-52
2021/01/07 01:28:59;;;;;;;2.80;2.60;;;;;16.10;100186.00;;;;2059552;28;20566;-49
2021/01/07 01:29:59;;;;;;;3.03;2.73;;;;;16.10;100183.00;;;;2062892;28;20215;-50
2021/01/07 01:30:59;;;;;;;2.83;2.63;;;;;16.10;100193.00;;;;2062827;28;20227;-53
2021/01/07 01:32:00;;;;;;;2.23;2.07;;;;;16.10;100192.00;;;;2063022;28;20230;-53
2021/01/07 01:33:00;;;;;;;2.33;2.20;;;;;16.10;100193.00;;;;2062882;28;20219;-52
2021/01/07 01:34:00;;;;;;;2.50;2.33;;;;;16.10;100200.00;;;;2062814;28;20714;-52
2021/01/07 01:35:01;;;;;;;2.40;2.23;;;;;16.10;100197.00;;;;2062231;28;20227;-52
2021/01/07 01:36:01;;;;;;;2.00;1.90;;;;;16.10;100195.00;;;;2062826;28;20235;-53
2021/01/07 01:37:04;;;;;;;2.10;2.00;;;;;16.10;100197.00;;;;2062760;28;20215;-53
2021/01/07 01:38:05;;;;;;;3.55;2.80;;;;;16.10;100196.00;;;;2062518;28;20310;-53
2021/01/07 01:39:05;;;;;;;2.17;2.07;;;;;16.10;100193.00;;;;2062245;28;20222;-52
2021/01/07 01:40:07;;;;;;;2.40;2.27;;;;;16.10;100197.00;;;;2062162;28;20223;-52
2021/01/07 01:41:07;;;;;;;2.50;2.30;;;;;16.20;100191.00;;;;2062839;28;20211;-52
2021/01/07 01:42:08;;;;;;;2.67;2.47;;;;;16.20;100185.00;;;;2062821;28;20219;-52
2021/01/07 01:43:08;;;;;;;2.40;2.20;;;;;16.20;100182.00;;;;2062506;28;20219;-50
2021/01/07 01:44:09;;;;;;;2.30;2.20;;;;;16.10;100196.00;;;;2062886;28;20708;-52
2021/01/07 01:45:10;;;;;;;2.75;2.55;;;;;16.10;100197.00;;;;2062063;28;20226;-52
2021/01/07 01:46:10;;;;;;;2.40;2.20;;;;;16.10;100195.00;;;;2062983;28;20242;-52
2021/01/07 01:47:10;;;;;;;2.67;2.47;;;;;16.10;100196.00;;;;2062104;28;21200;-54
2021/01/07 01:48:11;;;;;;;2.50;2.30;;;;;16.10;100193.00;;;;2062774;28;20600;-53
2021/01/07 01:49:14;;;;;;;2.43;2.30;;;;;16.10;100190.00;;;;2062218;28;20223;-51
2021/01/07 01:50:15;;;;;;;2.33;2.17;;;;;16.20;100200.00;;;;2054440;28;20212;-53
2021/01/07 01:51:15;;;;;;;2.37;2.17;;;;;16.20;100198.00;;;;2062158;28;20246;-53
2021/01/07 01:52:16;;;;;;;2.27;2.13;;;;;16.10;100194.00;;;;2062025;28;20216;-51
2021/01/07 01:53:16;;;;;;;2.83;2.53;;;;;16.10;100196.00;;;;2061312;28;20250;-53
2021/01/07 01:54:17;;;;;;;2.00;1.90;;;;;16.10;100192.00;;;;2061027;28;20215;-54
2021/01/07 01:55:17;;;;;;;2.67;2.47;;;;;16.10;100200.00;;;;2060170;28;20211;-52
2021/01/07 01:56:17;;;;;;;2.50;2.30;;;;;16.10;100197.00;;;;2062621;28;20214;-51
2021/01/07 01:57:18;;;;;;;2.47;2.30;;;;;16.10;100193.00;;;;2053824;28;20311;-51
2021/01/07 01:58:18;;;;;;;2.30;2.10;;;;;16.10;100196.00;;;;2053742;28;20227;-52
2021/01/07 01:59:19;;;;;;;2.50;2.30;;;;;16.10;100200.00;;;;2062727;28;20669;-52
2021/01/07 02:00:20;;;;;;;2.45;2.25;;;;;16.10;100197.00;;;;2067702;28;20623;-49
2021/01/07 02:01:20;;;;;;;2.53;2.33;;;;;16.10;100186.00;;;;2070132;28;20233;-51
2021/01/07 02:02:21;;;;;;;2.50;2.30;;;;;16.10;100200.00;;;;2064060;28;20324;-51
2021/01/07 02:03:21;;;;;;;2.20;2.10;;;;;16.10;100192.00;;;;2062672;28;20234;-53
2021/01/07 02:04:21;;;;;;;2.33;2.13;;;;;16.10;100192.00;;;;2062707;28;20245;-53
2021/01/07 02:05:22;;;;;;;2.10;2.00;;;;;16.10;100188.00;;;;2061974;28;20215;-52
2021/01/07 02:06:23;;;;;;;2.37;2.17;;;;;16.10;100194.00;;;;2062794;28;20581;-51
2021/01/07 02:07:24;;;;;;;2.03;1.92;;;;;16.10;100184.00;;;;2068205;28;20229;-52
2021/01/07 02:08:25;;;;;;;2.55;2.35;;;;;16.10;100187.00;;;;2061751;28;20213;-52
2021/01/07 02:09:25;;;;;;;2.43;2.23;;;;;16.10;100198.00;;;;2063355;28;20296;-53
2021/01/07 02:10:26;;;;;;;2.73;2.53;;;;;16.10;100197.00;;;;2076694;28;20280;-53
2021/01/07 02:11:26;;;;;;;2.10;2.00;;;;;16.10;100190.00;;;;2070099;28;20214;-51
2021/01/07 02:12:26;;;;;;;2.53;2.33;;;;;16.10;100192.00;;;;2054574;28;20582;-52
2021/01/07 02:13:27;;;;;;;2.10;2.00;;;;;16.10;100191.00;;;;2045674;28;20394;-52
2021/01/07 02:14:27;;;;;;;2.20;2.10;;;;;16.10;100187.00;;;;2060606;28;20218;-49
2021/01/07 02:15:27;;;;;;;2.60;2.40;;;;;16.10;100198.00;;;;2061719;28;20222;-52
2021/01/07 02:16:28;;;;;;;2.53;2.33;;;;;16.10;100188.00;;;;2055616;28;20220;-52
2021/01/07 02:17:28;;;;;;;2.60;2.40;;;;;16.10;100193.00;;;;2062468;28;20223;-53
2021/01/07 02:18:29;;;;;;;2.50;2.30;;;;;16.10;100200.00;;;;2062192;28;20225;-50
2021/01/07 02:19:29;;;;;;;2.40;2.30;;;;;16.20;100195.00;;;;2061059;28;20215;-50
2021/01/07 02:20:30;;;;;;;2.60;2.40;;;;;16.10;100198.00;;;;2051908;28;20234;-53
2021/01/07 02:21:36;;;;;;;2.33;2.13;;;;;16.10;100185.00;;;;2061757;28;20301;-52
2021/01/07 02:22:36;;;;;;;2.42;2.22;;;;;16.10;100189.00;;;;2059172;28;20215;-53
2021/01/07 02:23:50;;;;;;;2.90;2.40;;;;;16.10;100190.00;;;;2062492;28;20238;-51
2021/01/07 02:24:51;;;;;;;2.60;2.40;;;;;16.10;100191.00;;;;2062116;28;20673;-53
2021/01/07 02:25:51;;;;;;;2.20;2.00;;;;;16.10;100187.00;;;;2062548;28;20242;-52
2021/01/07 02:26:51;;;;;;;2.67;2.47;;;;;16.10;100190.00;;;;2062547;28;20517;-51
2021/01/07 02:27:52;;;;;;;2.50;2.30;;;;;16.10;100187.00;;;;2074571;28;20217;-53
2021/01/07 02:28:52;;;;;;;2.40;2.23;;;;;16.10;100189.00;;;;2078067;28;20281;-52
2021/01/07 02:29:52;;;;;;;2.30;2.17;;;;;16.20;100184.00;;;;2061959;28;20299;-52
2021/01/07 02:30:53;;;;;;;2.50;2.30;;;;;16.10;100194.00;;;;2062573;28;20234;-50
2021/01/07 02:31:53;;;;;;;2.50;2.30;;;;;16.10;100187.00;;;;2062434;28;20229;-52
2021/01/07 02:32:54;;;;;;;2.50;2.30;;;;;16.10;100187.00;;;;2062643;28;20607;-53
2021/01/07 02:33:54;;;;;;;2.50;2.40;;;;;16.10;100186.00;;;;2062164;28;20588;-53
2021/01/07 02:34:54;;;;;;;2.70;2.50;;;;;16.10;100185.00;;;;2061845;28;20243;-52
2021/01/07 02:35:54;;;;;;;2.13;2.03;;;;;16.10;100197.00;;;;2062472;28;20231;-53
2021/01/07 02:36:55;;;;;;;2.50;2.40;;;;;16.00;100190.00;;;;2062357;28;20239;-53
2021/01/07 02:37:55;;;;;;;2.60;2.40;;;;;16.10;100185.00;;;;2062306;28;20231;-51
2021/01/07 02:38:56;;;;;;;2.60;2.40;;;;;16.10;100189.00;;;;2062475;28;20685;-53
2021/01/07 02:39:56;;;;;;;2.40;2.20;;;;;16.10;100186.00;;;;2062560;28;20227;-52
2021/01/07 02:40:56;;;;;;;2.63;2.43;;;;;16.10;100186.00;;;;2062573;28;20219;-53
2021/01/07 02:41:57;;;;;;;2.70;2.50;;;;;16.10;100183.00;;;;2062537;28;20240;-52
2021/01/07 02:42:57;;;;;;;2.30;2.20;;;;;16.00;100184.00;;;;2062489;28;20703;-50
2021/01/07 02:43:57;;;;;;;2.37;2.27;;;;;16.10;100189.00;;;;2062341;28;20228;-52
2021/01/07 02:44:59;;;;;;;2.80;2.60;;;;;16.10;100190.00;;;;2061173;28;20235;-51
2021/01/07 02:45:59;;;;;;;2.58;2.38;;;;;16.10;100189.00;;;;2062288;28;20226;-51
2021/01/07 02:46:59;;;;;;;2.73;2.53;;;;;16.10;100184.00;;;;2062171;28;20210;-50
2021/01/07 02:48:00;;;;;;;2.50;2.30;;;;;16.10;100182.00;;;;2062221;28;20273;-51
2021/01/07 02:49:00;;;;;;;2.83;2.63;;;;;16.10;100190.00;;;;2062215;28;20215;-52
2021/01/07 02:50:01;;;;;;;2.63;2.43;;;;;16.10;100181.00;;;;2062513;28;20219;-51
2021/01/07 02:51:01;;;;;;;2.28;2.17;;;;;16.10;100187.00;;;;2062443;28;20215;-50
2021/01/07 02:52:02;;;;;;;2.57;2.37;;;;;16.10;100182.00;;;;2062444;28;20716;-52
2021/01/07 02:53:02;;;;;;;2.40;2.30;;;;;16.10;100181.00;;;;2062399;28;20220;-52
2021/01/07 02:54:03;;;;;;;2.87;2.67;;;;;16.10;100186.00;;;;2062373;28;20295;-52
2021/01/07 02:55:04;;;;;;;2.70;2.50;;;;;16.20;100181.00;;;;2061204;28;20742;-53
2021/01/07 02:56:04;;;;;;;2.67;2.47;;;;;16.10;100185.00;;;;2062536;28;20843;-52
2021/01/07 02:57:05;;;;;;;3.03;2.83;;;;;16.20;100185.00;;;;2062371;28;20216;-52
2021/01/07 02:58:05;;;;;;;2.53;2.33;;;;;16.20;100186.00;;;;2061785;28;20214;-54
2021/01/07 02:59:05;;;;;;;3.00;2.80;;;;;16.20;100183.00;;;;2062002;28;20222;-53
2021/01/07 03:00:06;;;;;;;2.57;2.37;;;;;16.10;100187.00;;;;2059346;28;20215;-51
2021/01/07 03:01:07;;;;;;;2.87;2.67;;;;;16.10;100187.00;;;;2065491;28;20210;-59
2021/01/07 03:02:07;;;;;;;2.80;2.60;;;;;16.10;100187.00;;;;2070446;28;20730;-58
2021/01/07 03:03:07;;;;;;;2.60;2.40;;;;;16.10;100181.00;;;;2070406;28;20234;-53
2021/01/07 03:04:08;;;;;;;3.20;2.57;;;;;16.10;100185.00;;;;2069990;28;20206;-54
2021/01/07 03:05:09;;;;;;;3.13;2.87;;;;;16.10;100182.00;;;;2070749;28;20297;-52
2021/01/07 03:06:10;;;;;;;2.50;2.30;;;;;16.10;100178.00;;;;2070077;28;20229;-52
2021/01/07 03:07:11;;;;;;;2.75;2.55;;;;;16.10;100181.00;;;;2071421;28;20217;-52
2021/01/07 03:08:11;;;;;;;2.83;2.60;;;;;16.10;100178.00;;;;2071948;28;20303;-53
2021/01/07 03:09:11;;;;;;;3.07;2.87;;;;;16.10;100179.00;;;;2071813;28;20301;-53
2021/01/07 03:10:12;;;;;;;2.50;2.30;;;;;16.10;100172.00;;;;2070659;28;20218;-53
2021/01/07 03:11:13;;;;;;;2.38;2.25;;;;;16.20;100170.00;;;;2071982;28;20210;-53
2021/01/07 03:12:17;;;;;;;2.63;2.43;;;;;16.10;100173.00;;;;2072020;28;20553;-55
2021/01/07 03:13:17;;;;;;;2.80;2.60;;;;;16.10;100169.00;;;;2071795;28;20707;-53
2021/01/07 03:14:18;;;;;;;3.00;2.80;;;;;16.10;100172.00;;;;2071691;28;20273;-51
2021/01/07 03:15:18;;;;;;;2.47;2.27;;;;;16.10;100168.00;;;;2071207;28;20272;-53
2021/01/07 03:16:18;;;;;;;2.80;2.60;;;;;16.10;100171.00;;;;2072113;28;20214;-53
2021/01/07 03:17:19;;;;;;;2.80;2.60;;;;;16.10;100166.00;;;;2071275;28;20265;-50
2021/01/07 03:18:19;;;;;;;2.50;2.30;;;;;16.10;100166.00;;;;2071143;28;20207;-51
2021/01/07 03:19:19;;;;;;;3.10;2.90;;;;;16.10;100169.00;;;;2071440;28;20746;-52
2021/01/07 03:20:20;;;;;;;3.23;3.03;;;;;16.10;100165.00;;;;2071398;28;20750;-51
2021/01/07 03:21:20;;;;;;;2.70;2.50;;;;;16.10;100168.00;;;;2071151;28;21043;-52
2021/01/07 03:22:20;;;;;;;3.13;2.90;;;;;16.10;100168.00;;;;2071102;28;20377;-52
2021/01/07 03:23:21;;;;;;;3.07;2.77;;;;;16.10;100165.00;;;;2071215;28;20214;-51
2021/01/07 03:24:21;;;;;;;2.80;2.60;;;;;16.10;100160.00;;;;2071005;28;20218;-52
2021/01/07 03:25:21;;;;;;;2.87;2.67;;;;;16.10;100157.00;;;;2070998;28;20265;-51
2021/01/07 03:26:22;;;;;;;2.77;2.57;;;;;16.10;100158.00;;;;2070997;28;20207;-54
2021/01/07 03:27:22;;;;;;;2.33;2.23;;;;;16.10;100161.00;;;;2070878;28;20220;-53
2021/01/07 03:28:22;;;;;;;3.33;3.03;;;;;16.10;100162.00;;;;2071604;28;20302;-53
2021/01/07 03:29:23;;;;;;;3.03;2.83;;;;;16.10;100158.00;;;;2071694;28;20206;-52
2021/01/07 03:30:23;;;;;;;2.80;2.60;;;;;16.10;100161.00;;;;2072055;28;20202;-52
2021/01/07 03:31:24;;;;;;;2.80;2.60;;;;;16.10;100156.00;;;;2072076;28;20710;-53
2021/01/07 03:32:24;;;;;;;3.30;3.07;;;;;16.10;100160.00;;;;2071804;28;20260;-53
2021/01/07 03:33:25;;;;;;;3.53;3.07;;;;;16.10;100152.00;;;;2072127;28;20287;-52
2021/01/07 03:34:25;;;;;;;2.80;2.60;;;;;16.10;100154.00;;;;2071604;28;20469;-52
2021/01/07 03:35:25;;;;;;;2.90;2.70;;;;;16.10;100156.00;;;;2070801;28;20217;-53
2021/01/07 03:36:26;;;;;;;2.73;2.53;;;;;16.10;100147.00;;;;2070501;28;20242;-53
2021/01/07 03:37:26;;;;;;;2.60;2.50;;;;;16.10;100148.00;;;;2070137;28;20213;-53
2021/01/07 03:38:27;;;;;;;3.00;2.80;;;;;16.10;100151.00;;;;2071817;28;20269;-53
2021/01/07 03:39:27;;;;;;;3.17;2.93;;;;;16.10;100147.00;;;;2071709;28;20207;-51
2021/01/07 03:40:28;;;;;;;3.20;2.83;;;;;16.10;100139.00;;;;2071843;28;20219;-51
2021/01/07 03:41:28;;;;;;;3.10;2.90;;;;;16.10;100142.00;;;;2066829;28;20228;-52
2021/01/07 03:42:28;;;;;;;3.20;3.00;;;;;16.10;100140.00;;;;2079318;28;20676;-53
2021/01/07 03:43:29;;;;;;;3.07;2.83;;;;;16.10;100142.00;;;;2073370;28;20214;-51
2021/01/07 03:44:29;;;;;;;3.20;3.00;;;;;16.10;100143.00;;;;2071455;28;20203;-51
2021/01/07 03:45:29;;;;;;;2.87;2.67;;;;;16.10;100142.00;;;;2071787;28;20215;-51
2021/01/07 03:46:30;;;;;;;3.47;3.17;;;;;16.10;100141.00;;;;2071701;28;20238;-51
2021/01/07 03:47:30;;;;;;;3.10;2.90;;;;;16.10;100151.00;;;;2071557;28;20753;-53
2021/01/07 03:48:30;;;;;;;3.70;3.40;;;;;16.10;100147.00;;;;2071479;28;20715;-52
2021/01/07 03:49:31;;;;;;;5.00;3.70;;;;;16.10;100140.00;;;;2071128;28;20298;-52
2021/01/07 03:50:31;;;;;;;3.20;3.00;;;;;16.10;100144.00;;;;2071620;28;20211;-52
2021/01/07 03:51:32;;;;;;;3.70;3.40;;;;;16.10;100145.00;;;;2071837;28;20297;-53
2021/01/07 03:52:32;;;;;;;3.00;2.80;;;;;16.10;100145.00;;;;2071571;28;20260;-53
2021/01/07 03:53:33;;;;;;;3.20;3.00;;;;;16.10;100146.00;;;;2070646;28;20461;-53
2021/01/07 03:54:33;;;;;;;3.13;2.93;;;;;16.10;100145.00;;;;2070357;28;20223;-52
2021/01/07 03:55:33;;;;;;;3.27;3.07;;;;;16.10;100139.00;;;;2071310;28;20214;-51
2021/01/07 03:56:34;;;;;;;3.33;3.13;;;;;16.10;100130.00;;;;2070454;28;20734;-51
2021/01/07 03:57:34;;;;;;;4.03;3.73;;;;;16.10;100138.00;;;;2070889;28;20770;-51
2021/01/07 03:58:37;;;;;;;3.83;3.60;;;;;16.10;100142.00;;;;2070995;28;20583;-51
2021/01/07 03:59:37;;;;;;;3.15;2.95;;;;;16.10;100136.00;;;;2070968;28;20214;-53
2021/01/07 04:00:38;;;;;;;3.77;3.47;;;;;16.10;100139.00;;;;2071138;28;20222;-52
2021/01/07 04:01:38;;;;;;;2.97;2.77;;;;;16.10;100145.00;;;;2070843;28;20273;-50
2021/01/07 04:02:38;;;;;;;3.77;3.47;;;;;16.10;100139.00;;;;2071036;28;20219;-51
2021/01/07 04:03:39;;;;;;;3.87;3.57;;;;;16.10;100141.00;;;;2071365;28;20223;-51
2021/01/07 04:04:39;;;;;;;3.80;3.50;;;;;16.10;100137.00;;;;2070371;28;20210;-53
2021/01/07 04:05:39;;;;;;;3.40;3.17;;;;;16.10;100132.00;;;;2071456;28;20818;-52
2021/01/07 04:06:40;;;;;;;3.03;2.83;;;;;16.10;100139.00;;;;2069854;28;20572;-53
2021/01/07 04:07:40;;;;;;;4.17;3.37;;;;;16.10;100129.00;;;;2069216;28;20561;-51
2021/01/07 04:08:43;;;;;;;3.90;3.43;;;;;16.10;100138.00;;;;2070842;28;20579;-52
2021/01/07 04:09:43;;;;;;;3.55;3.30;;;;;16.10;100138.00;;;;2070667;28;20218;-53
2021/01/07 04:10:43;;;;;;;3.70;3.40;;;;;16.10;100134.00;;;;2070132;28;20302;-52
2021/01/07 04:11:43;;;;;;;3.40;3.20;;;;;16.10;100139.00;;;;2071458;28;20334;-52
2021/01/07 04:12:44;;;;;;;4.20;3.83;;;;;16.10;100130.00;;;;2068651;28;20284;-53
2021/01/07 04:13:44;;;;;;;3.90;3.60;;;;;16.10;100141.00;;;;2071282;28;20215;-52
2021/01/07 04:14:45;;;;;;;3.63;3.43;;;;;16.10;100136.00;;;;2070206;28;20226;-52
2021/01/07 04:15:45;;;;;;;3.87;3.57;;;;;16.10;100133.00;;;;2071395;28;20802;-52
2021/01/07 04:16:45;;;;;;;4.50;4.10;;;;;16.10;100137.00;;;;2068511;28;20580;-53
2021/01/07 04:17:46;;;;;;;4.10;3.80;;;;;16.10;100141.00;;;;2071418;28;20219;-53
2021/01/07 04:18:46;;;;;;;4.33;4.03;;;;;16.10;100133.00;;;;2071649;28;20775;-54
2021/01/07 04:19:46;;;;;;;3.70;3.50;;;;;16.10;100137.00;;;;2071475;28;20211;-53
2021/01/07 04:20:47;;;;;;;4.03;3.73;;;;;16.10;100137.00;;;;2071562;28;20293;-50
2021/01/07 04:21:47;;;;;;;3.97;3.67;;;;;16.10;100134.00;;;;2066109;28;20215;-51
2021/01/07 04:22:47;;;;;;;3.90;3.60;;;;;16.10;100125.00;;;;2070882;28;20254;-51
2021/01/07 04:23:48;;;;;;;4.00;3.70;;;;;16.10;100133.00;;;;2071036;28;20219;-51
2021/01/07 04:24:48;;;;;;;4.97;4.57;;;;;16.10;100126.00;;;;2070705;28;20214;-52
2021/01/07 04:25:48;;;;;;;4.23;3.93;;;;;16.10;100137.00;;;;2071460;28;20715;-51
2021/01/07 04:26:49;;;;;;;4.40;4.00;;;;;16.10;100136.00;;;;2071401;28;20583;-51
2021/01/07 04:27:49;;;;;;;3.80;3.60;;;;;16.10;100132.00;;;;2071295;28;20214;-51
2021/01/07 04:28:49;;;;;;;4.50;4.10;;;;;16.10;100134.00;;;;2071213;28;20242;-51
2021/01/07 04:29:50;;;;;;;4.10;3.80;;;;;16.10;100122.00;;;;2071343;28;20225;-50
2021/01/07 04:30:50;;;;;;;4.10;3.70;;;;;16.10;100131.00;;;;2071693;28;20645;-53
2021/01/07 04:31:50;;;;;;;4.03;3.73;;;;;16.10;100131.00;;;;2071662;28;20214;-54
2021/01/07 04:32:51;;;;;;;4.07;3.77;;;;;16.10;100138.00;;;;2068817;28;20218;-53
2021/01/07 04:33:51;;;;;;;4.53;4.23;;;;;16.10;100129.00;;;;2070759;28;20221;-52
2021/01/07 04:34:52;;;;;;;4.23;3.93;;;;;16.10;100128.00;;;;2069769;28;20278;-50
2021/01/07 04:35:52;;;;;;;4.27;3.97;;;;;16.10;100128.00;;;;2070629;28;20218;-57
2021/01/07 04:36:52;;;;;;;4.23;3.93;;;;;16.10;100123.00;;;;2070509;28;20221;-53
2021/01/07 04:37:52;;;;;;;4.00;3.70;;;;;16.10;100130.00;;;;2068681;28;20290;-56
2021/01/07 04:38:53;;;;;;;3.93;3.60;;;;;16.10;100125.00;;;;2070681;28;20214;-54
2021/01/07 04:39:54;;;;;;;3.90;3.70;;;;;16.10;100121.00;;;;2071206;28;20680;-53
2021/01/07 04:40:54;;;;;;;4.30;4.00;;;;;16.10;100123.00;;;;2071296;28;20456;-53
2021/01/07 04:41:55;;;;;;;3.67;3.40;;;;;16.10;100125.00;;;;2071217;28;20211;-53
2021/01/07 04:42:56;;;;;;;3.83;3.53;;;;;16.10;100122.00;;;;2068685;28;20222;-52
2021/01/07 04:43:56;;;;;;;3.63;3.38;;;;;16.10;100117.00;;;;2058203;28;20307;-52
2021/01/07 04:44:57;;;;;;;4.47;4.10;;;;;16.10;100117.00;;;;2057637;28;20605;-54
2021/01/07 04:45:57;;;;;;;4.17;3.87;;;;;16.10;100114.00;;;;2070701;28;20461;-53
2021/01/07 04:46:58;;;;;;;3.93;3.63;;;;;16.10;100115.00;;;;2062341;28;20223;-51
2021/01/07 04:47:59;;;;;;;4.23;3.90;;;;;16.10;100123.00;;;;2070623;28;20230;-50
2021/01/07 04:48:59;;;;;;;4.47;4.17;;;;;16.10;100118.00;;;;2062499;28;20819;-52
2021/01/07 04:49:59;;;;;;;3.90;3.70;;;;;16.10;100116.00;;;;2054356;28;20574;-53
2021/01/07 04:51:00;;;;;;;4.53;4.13;;;;;16.10;100106.00;;;;2056013;28;20223;-52
2021/01/07 04:52:00;;;;;;;4.50;4.10;;;;;16.10;100117.00;;;;2066397;28;20317;-50
2021/01/07 04:53:01;;;;;;;4.10;3.80;;;;;16.10;100118.00;;;;2069985;28;20230;-52
2021/01/07 04:54:01;;;;;;;4.50;4.20;;;;;16.10;100116.00;;;;2069953;28;20231;-52
2021/01/07 04:55:02;;;;;;;4.17;3.87;;;;;16.10;100076.00;;;;2069421;28;20533;-51
2021/01/07 04:56:02;;;;;;;3.90;3.60;;;;;16.10;100117.00;;;;2070605;28;20215;-49
2021/01/07 04:57:02;;;;;;;4.20;3.90;;;;;16.10;100125.00;;;;2070355;28;20230;-52
2021/01/07 04:58:03;;;;;;;3.87;3.57;;;;;16.10;100105.00;;;;2071236;28;20215;-53
2021/01/07 04:59:03;;;;;;;3.87;3.67;;;;;16.10;100110.00;;;;2062151;28;21075;-52
2021/01/07 05:00:05;;;;;;;4.07;3.77;;;;;16.10;100108.00;;;;2045918;28;20213;-53